sensor_id;sensor_type;location;lat;lon;timestamp;pressure;altitude;pressure_sealevel;temperature;humidity
7157;BME280;3620;49.862;8.758;2023-02-23T00:00:25;98872.97;;;13.75;90.62
7157;BME280;3620;49.862;8.758;2023-02-23T00:02:54;98876.81;;;13.84;91.42
7157;BME280;3620;49.862;8.758;2023-02-23T00:05:25;98874.78;;;13.61;92.04
7157;BME280;3620;49.862;8.758;2023-02-23T00:07:52;98881.91;;;13.46;93.14
7157;BME280;3620;49.862;8.758;2023-02-23T00:10:19;98874.50;;;13.51;93.22
7157;BME280;3620;49.862;8.758;2023-02-23T00:12:49;98877.66;;;13.44;94.29
7157;BME280;3620;49.862;8.758;2023-02-23T00:15:15;98866.22;;;13.43;93.81
7157;BME280;3620;49.862;8.758;2023-02-23T00:17:42;98869.25;;;13.37;93.97
7157;BME280;3620;49.862;8.758;2023-02-23T00:20:12;98867.66;;;13.35;94.48
7157;BME280;3620;49.862;8.758;2023-02-23T00:22:42;98876.31;;;13.51;93.50
7157;BME280;3620;49.862;8.758;2023-02-23T00:25:10;98870.28;;;13.49;94.01
7157;BME280;3620;49.862;8.758;2023-02-23T00:27:36;98873.56;;;13.52;94.18
7157;BME280;3620;49.862;8.758;2023-02-23T00:30:09;98870.13;;;13.38;94.63
7157;BME280;3620;49.862;8.758;2023-02-23T00:32:36;98872.72;;;13.52;94.34
7157;BME280;3620;49.862;8.758;2023-02-23T00:35:03;98864.41;;;13.58;93.54
7157;BME280;3620;49.862;8.758;2023-02-23T00:37:34;98871.00;;;13.65;93.38
7157;BME280;3620;49.862;8.758;2023-02-23T00:40:04;98870.28;;;13.49;94.73
7157;BME280;3620;49.862;8.758;2023-02-23T00:42:31;98873.56;;;13.52;94.47
7157;BME280;3620;49.862;8.758;2023-02-23T00:44:58;98871.44;;;13.31;95.77
7157;BME280;3620;49.862;8.758;2023-02-23T00:47:32;98873.31;;;13.43;95.44
7157;BME280;3620;49.862;8.758;2023-02-23T00:49:59;98866.28;;;13.56;94.95
7157;BME280;3620;49.862;8.758;2023-02-23T00:52:26;98869.53;;;13.33;95.96
7157;BME280;3620;49.862;8.758;2023-02-23T00:54:53;98865.59;;;13.40;96.10
7157;BME280;3620;49.862;8.758;2023-02-23T00:57:21;98876.78;;;13.57;95.08
7157;BME280;3620;49.862;8.758;2023-02-23T00:59:48;98873.69;;;13.37;96.43
7157;BME280;3620;49.862;8.758;2023-02-23T01:02:14;98874.78;;;13.47;95.60
7157;BME280;3620;49.862;8.758;2023-02-23T01:04:41;98872.94;;;13.49;95.87
7157;BME280;3620;49.862;8.758;2023-02-23T01:07:07;98877.06;;;13.53;95.46
7157;BME280;3620;49.862;8.758;2023-02-23T01:09:37;98871.97;;;13.64;95.69
7157;BME280;3620;49.862;8.758;2023-02-23T01:12:03;98874.69;;;13.62;96.21
7157;BME280;3620;49.862;8.758;2023-02-23T01:14:33;98873.94;;;13.60;96.77
7157;BME280;3620;49.862;8.758;2023-02-23T01:17:00;98877.59;;;13.72;95.52
7157;BME280;3620;49.862;8.758;2023-02-23T01:19:26;98881.84;;;13.74;95.65
7157;BME280;3620;49.862;8.758;2023-02-23T01:21:53;98872.94;;;13.49;98.28
7157;BME280;3620;49.862;8.758;2023-02-23T01:24:19;98879.63;;;13.54;97.80
7157;BME280;3620;49.862;8.758;2023-02-23T01:26:46;98878.44;;;13.72;97.74
7157;BME280;3620;49.862;8.758;2023-02-23T01:29:14;98880.06;;;13.61;97.57
7157;BME280;3620;49.862;8.758;2023-02-23T01:31:44;98880.25;;;13.72;97.90
7157;BME280;3620;49.862;8.758;2023-02-23T01:34:12;98877.59;;;13.72;97.48
7157;BME280;3620;49.862;8.758;2023-02-23T01:36:41;98872.66;;;14.07;96.37
7157;BME280;3620;49.862;8.758;2023-02-23T01:39:10;98866.16;;;14.12;96.12
7157;BME280;3620;49.862;8.758;2023-02-23T01:41:38;98871.69;;;14.22;95.96
7157;BME280;3620;49.862;8.758;2023-02-23T01:44:57;98874.69;;;14.30;95.37
7157;BME280;3620;49.862;8.758;2023-02-23T01:46:56;98876.53;;;14.15;96.62
7157;BME280;3620;49.862;8.758;2023-02-23T01:49:26;98875.72;;;14.27;94.77
7157;BME280;3620;49.862;8.758;2023-02-23T01:51:56;98878.06;;;14.05;97.16
7157;BME280;3620;49.862;8.758;2023-02-23T01:54:26;98870.34;;;14.02;97.84
7157;BME280;3620;49.862;8.758;2023-02-23T01:56:57;98875.72;;;14.27;95.84
7157;BME280;3620;49.862;8.758;2023-02-23T01:59:29;98879.56;;;14.09;97.73
7157;BME280;3620;49.862;8.758;2023-02-23T02:02:01;98874.22;;;14.23;96.82
7157;BME280;3620;49.862;8.758;2023-02-23T02:04:29;98874.81;;;14.14;97.52
7157;BME280;3620;49.862;8.758;2023-02-23T02:07:03;98877.31;;;14.03;97.70
7157;BME280;3620;49.862;8.758;2023-02-23T02:09:30;98869.09;;;14.08;98.72
7157;BME280;3620;49.862;8.758;2023-02-23T02:12:02;98872.66;;;14.07;97.71
7157;BME280;3620;49.862;8.758;2023-02-23T02:14:33;98866.75;;;14.03;97.72
7157;BME280;3620;49.862;8.758;2023-02-23T02:17:14;98863.63;;;14.11;97.27
7157;BME280;3620;49.862;8.758;2023-02-23T02:26:04;98858.03;;;14.15;97.56
7157;BME280;3620;49.862;8.758;2023-02-23T02:32:13;98858.25;;;13.98;98.65
7157;BME280;3620;49.862;8.758;2023-02-23T02:35:01;98854.41;;;13.63;100.00
7157;BME280;3620;49.862;8.758;2023-02-23T02:37:44;98851.84;;;13.75;100.00
7157;BME280;3620;49.862;8.758;2023-02-23T02:40:20;98856.28;;;13.75;100.00
7157;BME280;3620;49.862;8.758;2023-02-23T02:43:04;98853.06;;;13.56;100.00
7157;BME280;3620;49.862;8.758;2023-02-23T02:45:41;98841.56;;;13.57;100.00
7157;BME280;3620;49.862;8.758;2023-02-23T02:48:16;98843.31;;;13.30;100.00
7157;BME280;3620;49.862;8.758;2023-02-23T02:50:48;98848.66;;;13.42;100.00
7157;BME280;3620;49.862;8.758;2023-02-23T02:53:24;98853.88;;;13.30;100.00
7157;BME280;3620;49.862;8.758;2023-02-23T02:55:52;98849.72;;;13.40;100.00
7157;BME280;3620;49.862;8.758;2023-02-23T02:58:21;98843.53;;;13.27;100.00
7157;BME280;3620;49.862;8.758;2023-02-23T03:00:50;98849.91;;;13.37;100.00
7157;BME280;3620;49.862;8.758;2023-02-23T03:03:36;98849.28;;;13.33;100.00
7157;BME280;3620;49.862;8.758;2023-02-23T03:06:23;98845.66;;;13.34;100.00
7157;BME280;3620;49.862;8.758;2023-02-23T03:09:18;98845.97;;;13.30;100.00
7157;BME280;3620;49.862;8.758;2023-02-23T03:12:09;98839.06;;;13.27;100.00
7157;BME280;3620;49.862;8.758;2023-02-23T03:15:01;98840.19;;;13.37;100.00
7157;BME280;3620;49.862;8.758;2023-02-23T03:17:49;98841.41;;;13.46;100.00
7157;BME280;3620;49.862;8.758;2023-02-23T03:20:40;98841.00;;;13.66;100.00
7157;BME280;3620;49.862;8.758;2023-02-23T03:23:34;98845.25;;;13.68;100.00
7157;BME280;3620;49.862;8.758;2023-02-23T03:26:29;98841.19;;;13.63;100.00
7157;BME280;3620;49.862;8.758;2023-02-23T03:29:19;98840.03;;;13.67;100.00
7157;BME280;3620;49.862;8.758;2023-02-23T03:32:12;98847.94;;;13.81;100.00
7157;BME280;3620;49.862;8.758;2023-02-23T03:35:03;98839.81;;;13.84;99.75
7157;BME280;3620;49.862;8.758;2023-02-23T03:37:54;98847.69;;;13.98;99.29
7157;BME280;3620;49.862;8.758;2023-02-23T03:40:42;98843.59;;;12.97;100.00
7157;BME280;3620;49.862;8.758;2023-02-23T03:43:34;98853.78;;;12.45;100.00
7157;BME280;3620;49.862;8.758;2023-02-23T03:46:20;98851.06;;;12.61;100.00
7157;BME280;3620;49.862;8.758;2023-02-23T03:49:09;98843.84;;;12.64;100.00
7157;BME280;3620;49.862;8.758;2023-02-23T03:52:00;98858.88;;;12.48;100.00
7157;BME280;3620;49.862;8.758;2023-02-23T03:54:48;98857.63;;;12.39;100.00
7157;BME280;3620;49.862;8.758;2023-02-23T03:57:36;98852.75;;;12.18;100.00
7157;BME280;3620;49.862;8.758;2023-02-23T04:00:27;98853.56;;;12.34;100.00
7157;BME280;3620;49.862;8.758;2023-02-23T04:03:15;98860.13;;;12.27;100.00
7157;BME280;3620;49.862;8.758;2023-02-23T04:06:00;98852.50;;;12.07;100.00
7157;BME280;3620;49.862;8.758;2023-02-23T04:08:45;98849.63;;;11.96;100.00
7157;BME280;3620;49.862;8.758;2023-02-23T04:11:39;98854.84;;;12.27;100.00
7157;BME280;3620;49.862;8.758;2023-02-23T04:14:30;98859.81;;;12.47;100.00
7157;BME280;3620;49.862;8.758;2023-02-23T04:17:01;98856.91;;;12.22;100.00
7157;BME280;3620;49.862;8.758;2023-02-23T04:19:27;98854.34;;;12.20;100.00
7157;BME280;3620;49.862;8.758;2023-02-23T04:21:54;98858.22;;;12.29;100.00
7157;BME280;3620;49.862;8.758;2023-02-23T04:24:21;98864.16;;;12.48;100.00
7157;BME280;3620;49.862;8.758;2023-02-23T04:26:47;98855.28;;;12.49;100.00
7157;BME280;3620;49.862;8.758;2023-02-23T04:29:14;98859.94;;;12.30;100.00
7157;BME280;3620;49.862;8.758;2023-02-23T04:31:41;98859.47;;;12.53;100.00
7157;BME280;3620;49.862;8.758;2023-02-23T04:34:09;98860.00;;;12.44;100.00
7157;BME280;3620;49.862;8.758;2023-02-23T04:36:35;98861.09;;;12.40;100.00
7157;BME280;3620;49.862;8.758;2023-02-23T04:39:02;98860.75;;;12.46;100.00
7157;BME280;3620;49.862;8.758;2023-02-23T04:41:29;98864.31;;;12.45;100.00
7157;BME280;3620;49.862;8.758;2023-02-23T04:43:55;98870.22;;;12.64;100.00
7157;BME280;3620;49.862;8.758;2023-02-23T04:46:22;98865.72;;;12.36;100.00
7157;BME280;3620;49.862;8.758;2023-02-23T04:48:48;98867.00;;;12.59;100.00
7157;BME280;3620;49.862;8.758;2023-02-23T04:51:16;98857.97;;;12.63;100.00
7157;BME280;3620;49.862;8.758;2023-02-23T04:53:43;98864.88;;;12.80;100.00
7157;BME280;3620;49.862;8.758;2023-02-23T04:56:09;98854.31;;;12.80;100.00
7157;BME280;3620;49.862;8.758;2023-02-23T04:58:36;98864.16;;;12.48;100.00
7157;BME280;3620;49.862;8.758;2023-02-23T05:01:04;98863.19;;;12.35;100.00
7157;BME280;3620;49.862;8.758;2023-02-23T05:03:31;98862.44;;;12.47;100.00
7157;BME280;3620;49.862;8.758;2023-02-23T05:05:57;98862.28;;;12.50;100.00
7157;BME280;3620;49.862;8.758;2023-02-23T05:08:25;98862.09;;;12.53;100.00
7157;BME280;3620;49.862;8.758;2023-02-23T05:10:52;98866.53;;;12.52;100.00
7157;BME280;3620;49.862;8.758;2023-02-23T05:13:18;98856.06;;;12.65;100.00
7157;BME280;3620;49.862;8.758;2023-02-23T05:15:45;98864.81;;;12.51;100.00
7157;BME280;3620;49.862;8.758;2023-02-23T05:18:11;98869.44;;;12.48;100.00
7157;BME280;3620;49.862;8.758;2023-02-23T05:20:41;98872.22;;;12.31;100.00
7157;BME280;3620;49.862;8.758;2023-02-23T05:23:09;98860.44;;;12.36;100.00
7157;BME280;3620;49.862;8.758;2023-02-23T05:25:38;98873.53;;;12.38;100.00
7157;BME280;3620;49.862;8.758;2023-02-23T05:28:04;98867.50;;;12.06;100.00
7157;BME280;3620;49.862;8.758;2023-02-23T05:30:31;98868.16;;;12.10;100.00
7157;BME280;3620;49.862;8.758;2023-02-23T05:32:58;98877.28;;;12.34;100.00
7157;BME280;3620;49.862;8.758;2023-02-23T05:35:24;98862.81;;;12.41;100.00
7157;BME280;3620;49.862;8.758;2023-02-23T05:37:51;98865.63;;;12.38;100.00
7157;BME280;3620;49.862;8.758;2023-02-23T05:40:18;98874.75;;;12.76;100.00
7157;BME280;3620;49.862;8.758;2023-02-23T05:42:46;98861.97;;;12.84;100.00
7157;BME280;3620;49.862;8.758;2023-02-23T05:45:12;98868.13;;;12.55;100.00
7157;BME280;3620;49.862;8.758;2023-02-23T05:47:39;98876.59;;;12.46;100.00
7157;BME280;3620;49.862;8.758;2023-02-23T05:50:08;98868.78;;;12.29;100.00
7157;BME280;3620;49.862;8.758;2023-02-23T05:52:36;98863.06;;;11.91;100.00
7157;BME280;3620;49.862;8.758;2023-02-23T05:55:05;98880.19;;;12.29;100.00
7157;BME280;3620;49.862;8.758;2023-02-23T05:57:31;98872.91;;;12.19;100.00
7157;BME280;3620;49.862;8.758;2023-02-23T05:59:59;98869.59;;;12.45;100.00
7157;BME280;3620;49.862;8.758;2023-02-23T06:02:26;98868.19;;;12.39;100.00
7157;BME280;3620;49.862;8.758;2023-02-23T06:04:52;98874.06;;;12.29;100.00
7157;BME280;3620;49.862;8.758;2023-02-23T06:07:20;98869.47;;;12.76;100.00
7157;BME280;3620;49.862;8.758;2023-02-23T06:09:46;98873.66;;;12.94;100.00
7157;BME280;3620;49.862;8.758;2023-02-23T06:12:13;98876.53;;;13.05;100.00
7157;BME280;3620;49.862;8.758;2023-02-23T06:14:39;98871.72;;;13.12;100.00
7157;BME280;3620;49.862;8.758;2023-02-23T06:17:07;98882.00;;;13.16;100.00
7157;BME280;3620;49.862;8.758;2023-02-23T06:19:34;98880.78;;;13.22;100.00
7157;BME280;3620;49.862;8.758;2023-02-23T06:22:00;98879.09;;;13.35;100.00
7157;BME280;3620;49.862;8.758;2023-02-23T06:24:27;98880.00;;;13.20;100.00
7157;BME280;3620;49.862;8.758;2023-02-23T06:26:53;98875.28;;;13.39;100.00
7157;BME280;3620;49.862;8.758;2023-02-23T06:29:20;98878.75;;;13.54;100.00
7157;BME280;3620;49.862;8.758;2023-02-23T06:31:47;98878.94;;;13.65;100.00
7157;BME280;3620;49.862;8.758;2023-02-23T06:34:15;98876.56;;;13.74;100.00
7157;BME280;3620;49.862;8.758;2023-02-23T06:36:41;98884.78;;;13.70;100.00
7157;BME280;3620;49.862;8.758;2023-02-23T06:39:09;98884.75;;;13.84;100.00
7157;BME280;3620;49.862;8.758;2023-02-23T06:41:36;98884.97;;;13.67;100.00
7157;BME280;3620;49.862;8.758;2023-02-23T06:44:03;98891.97;;;13.54;100.00
7157;BME280;3620;49.862;8.758;2023-02-23T06:46:30;98889.72;;;13.48;100.00
7157;BME280;3620;49.862;8.758;2023-02-23T06:48:58;98900.84;;;13.39;100.00
7157;BME280;3620;49.862;8.758;2023-02-23T06:51:26;98894.16;;;13.47;100.00
7157;BME280;3620;49.862;8.758;2023-02-23T06:53:52;98902.00;;;13.49;100.00
7157;BME280;3620;49.862;8.758;2023-02-23T06:56:19;98903.13;;;13.59;100.00
7157;BME280;3620;49.862;8.758;2023-02-23T06:58:46;98902.72;;;13.65;100.00
7157;BME280;3620;49.862;8.758;2023-02-23T07:01:13;98899.72;;;13.71;100.00
7157;BME280;3620;49.862;8.758;2023-02-23T07:03:40;98901.97;;;13.77;100.00
7157;BME280;3620;49.862;8.758;2023-02-23T07:06:06;98900.25;;;13.76;100.00
7157;BME280;3620;49.862;8.758;2023-02-23T07:08:34;98904.75;;;13.88;100.00
7157;BME280;3620;49.862;8.758;2023-02-23T07:11:06;98908.91;;;13.92;99.95
7157;BME280;3620;49.862;8.758;2023-02-23T07:13:32;98911.72;;;13.89;100.00
7157;BME280;3620;49.862;8.758;2023-02-23T07:15:59;98914.47;;;14.02;100.00
7157;BME280;3620;49.862;8.758;2023-02-23T07:18:25;98918.91;;;13.87;100.00
7157;BME280;3620;49.862;8.758;2023-02-23T07:20:52;98913.25;;;13.93;99.31
7157;BME280;3620;49.862;8.758;2023-02-23T07:23:18;98919.78;;;13.87;100.00
7157;BME280;3620;49.862;8.758;2023-02-23T07:25:48;98920.25;;;13.80;99.61
7157;BME280;3620;49.862;8.758;2023-02-23T07:28:15;98923.09;;;13.77;100.00
7157;BME280;3620;49.862;8.758;2023-02-23T07:30:41;98926.84;;;13.87;100.00
7157;BME280;3620;49.862;8.758;2023-02-23T07:33:08;98920.44;;;13.91;100.00
7157;BME280;3620;49.862;8.758;2023-02-23T07:35:35;98919.72;;;13.75;100.00
7157;BME280;3620;49.862;8.758;2023-02-23T07:38:01;98924.72;;;13.79;100.00
7157;BME280;3620;49.862;8.758;2023-02-23T07:40:31;98922.88;;;13.94;100.00
7157;BME280;3620;49.862;8.758;2023-02-23T07:42:59;98925.00;;;13.75;100.00
7157;BME280;3620;49.862;8.758;2023-02-23T07:45:26;98928.56;;;13.74;100.00
7157;BME280;3620;49.862;8.758;2023-02-23T07:47:52;98921.22;;;13.79;100.00
7157;BME280;3620;49.862;8.758;2023-02-23T07:50:19;98928.19;;;13.80;100.00
7157;BME280;3620;49.862;8.758;2023-02-23T07:52:47;98924.31;;;13.71;100.00
7157;BME280;3620;49.862;8.758;2023-02-23T07:55:13;98928.38;;;13.77;100.00
7157;BME280;3620;49.862;8.758;2023-02-23T07:57:40;98942.28;;;13.66;100.00
7157;BME280;3620;49.862;8.758;2023-02-23T08:00:09;98930.88;;;13.66;100.00
7157;BME280;3620;49.862;8.758;2023-02-23T08:02:36;98932.53;;;13.81;100.00
7157;BME280;3620;49.862;8.758;2023-02-23T08:05:03;98931.78;;;13.79;100.00
7157;BME280;3620;49.862;8.758;2023-02-23T08:07:30;98933.28;;;13.83;100.00
7157;BME280;3620;49.862;8.758;2023-02-23T08:09:57;98941.22;;;13.69;100.00
7157;BME280;3620;49.862;8.758;2023-02-23T08:12:24;98942.19;;;13.68;100.00
7157;BME280;3620;49.862;8.758;2023-02-23T08:14:50;98936.97;;;13.80;100.00
7157;BME280;3620;49.862;8.758;2023-02-23T08:17:19;98942.34;;;13.93;100.00
7157;BME280;3620;49.862;8.758;2023-02-23T08:19:45;98945.44;;;14.00;100.00
7157;BME280;3620;49.862;8.758;2023-02-23T08:22:13;98940.81;;;14.03;100.00
7157;BME280;3620;49.862;8.758;2023-02-23T08:24:39;98952.00;;;13.66;100.00
7157;BME280;3620;49.862;8.758;2023-02-23T08:27:06;98954.16;;;13.73;100.00
7157;BME280;3620;49.862;8.758;2023-02-23T08:29:32;98952.41;;;14.01;100.00
7157;BME280;3620;49.862;8.758;2023-02-23T08:32:01;98947.41;;;14.10;100.00
7157;BME280;3620;49.862;8.758;2023-02-23T08:34:29;98946.97;;;13.89;99.97
7157;BME280;3620;49.862;8.758;2023-02-23T08:36:55;98948.31;;;14.23;99.11
7157;BME280;3620;49.862;8.758;2023-02-23T08:39:22;98956.03;;;14.40;97.68
7157;BME280;3620;49.862;8.758;2023-02-23T08:41:48;98947.94;;;14.29;98.04
7157;BME280;3620;49.862;8.758;2023-02-23T08:44:16;98945.44;;;14.40;98.23
7157;BME280;3620;49.862;8.758;2023-02-23T08:46:43;98951.69;;;14.39;96.80
7157;BME280;3620;49.862;8.758;2023-02-23T08:49:10;98952.91;;;14.60;95.83
7157;BME280;3620;49.862;8.758;2023-02-23T08:51:38;98951.31;;;14.58;96.04
7157;BME280;3620;49.862;8.758;2023-02-23T08:54:06;98958.63;;;14.54;95.61
7157;BME280;3620;49.862;8.758;2023-02-23T08:56:36;98957.13;;;14.50;96.04
7157;BME280;3620;49.862;8.758;2023-02-23T08:59:03;98953.63;;;14.50;96.27
7157;BME280;3620;49.862;8.758;2023-02-23T09:01:30;98958.50;;;14.29;96.93
7157;BME280;3620;49.862;8.758;2023-02-23T09:03:56;98960.22;;;14.30;96.67
7157;BME280;3620;49.862;8.758;2023-02-23T09:06:24;98955.09;;;14.27;97.27
7157;BME280;3620;49.862;8.758;2023-02-23T09:08:53;98958.75;;;13.98;98.78
7157;BME280;3620;49.862;8.758;2023-02-23T09:11:20;98960.47;;;13.99;98.93
7157;BME280;3620;49.862;8.758;2023-02-23T09:13:46;98960.28;;;14.02;98.45
7157;BME280;3620;49.862;8.758;2023-02-23T09:16:13;98967.31;;;14.16;98.44
7157;BME280;3620;49.862;8.758;2023-02-23T09:18:39;98972.13;;;14.37;97.94
7157;BME280;3620;49.862;8.758;2023-02-23T09:21:09;98967.38;;;14.28;97.36
7157;BME280;3620;49.862;8.758;2023-02-23T09:23:43;98977.41;;;14.37;97.01
7157;BME280;3620;49.862;8.758;2023-02-23T09:26:11;98973.25;;;14.33;97.93
7157;BME280;3620;49.862;8.758;2023-02-23T09:28:38;98977.19;;;14.40;97.17
7157;BME280;3620;49.862;8.758;2023-02-23T09:31:06;98978.78;;;14.43;96.37
7157;BME280;3620;49.862;8.758;2023-02-23T09:33:34;98976.22;;;14.55;95.98
7157;BME280;3620;49.862;8.758;2023-02-23T09:36:03;98973.47;;;14.57;95.83
7157;BME280;3620;49.862;8.758;2023-02-23T09:38:30;98976.56;;;14.63;95.38
7157;BME280;3620;49.862;8.758;2023-02-23T09:40:56;98987.22;;;14.89;95.92
7157;BME280;3620;49.862;8.758;2023-02-23T09:43:29;98987.00;;;14.92;93.13
7157;BME280;3620;49.862;8.758;2023-02-23T09:46:03;98972.88;;;14.79;94.78
7157;BME280;3620;49.862;8.758;2023-02-23T09:48:33;98978.25;;;15.04;94.35
7157;BME280;3620;49.862;8.758;2023-02-23T09:51:00;98986.19;;;15.04;94.04
7157;BME280;3620;49.862;8.758;2023-02-23T09:53:36;98983.97;;;15.23;92.20
7157;BME280;3620;49.862;8.758;2023-02-23T09:56:09;98980.78;;;15.18;93.07
7157;BME280;3620;49.862;8.758;2023-02-23T09:58:39;98981.88;;;15.15;92.01
7157;BME280;3620;49.862;8.758;2023-02-23T10:04:17;98985.22;;;15.05;91.09
7157;BME280;3620;49.862;8.758;2023-02-23T10:06:51;98993.91;;;14.94;92.13
7157;BME280;3620;49.862;8.758;2023-02-23T10:09:24;98993.91;;;15.07;91.24
7157;BME280;3620;49.862;8.758;2023-02-23T10:11:58;98986.72;;;15.09;90.75
7157;BME280;3620;49.862;8.758;2023-02-23T10:14:51;98997.56;;;15.31;89.72
7157;BME280;3620;49.862;8.758;2023-02-23T10:17:28;98994.81;;;15.32;89.59
7157;BME280;3620;49.862;8.758;2023-02-23T10:20:03;98994.16;;;15.29;89.35
7157;BME280;3620;49.862;8.758;2023-02-23T10:22:33;98998.28;;;15.08;90.74
7157;BME280;3620;49.862;8.758;2023-02-23T10:25:05;98992.22;;;15.06;90.81
7157;BME280;3620;49.862;8.758;2023-02-23T10:27:37;98992.84;;;14.97;90.72
7157;BME280;3620;49.862;8.758;2023-02-23T10:30:16;98997.72;;;15.03;90.29
7157;BME280;3620;49.862;8.758;2023-02-23T10:32:49;98995.63;;;15.08;90.69
7157;BME280;3620;49.862;8.758;2023-02-23T10:35:20;98992.25;;;14.66;91.92
7157;BME280;3620;49.862;8.758;2023-02-23T10:37:47;98996.38;;;14.71;91.80
7157;BME280;3620;49.862;8.758;2023-02-23T10:40:15;98990.28;;;14.56;92.82
7157;BME280;3620;49.862;8.758;2023-02-23T10:42:42;98999.91;;;14.84;92.10
7157;BME280;3620;49.862;8.758;2023-02-23T10:45:15;99001.25;;;14.77;91.75
7157;BME280;3620;49.862;8.758;2023-02-23T10:47:49;99004.53;;;14.80;90.65
7157;BME280;3620;49.862;8.758;2023-02-23T10:50:18;99001.25;;;14.77;91.47
7157;BME280;3620;49.862;8.758;2023-02-23T10:52:48;99000.84;;;14.83;90.32
7157;BME280;3620;49.862;8.758;2023-02-23T10:55:21;99000.38;;;15.03;90.23
7157;BME280;3620;49.862;8.758;2023-02-23T10:57:50;99003.63;;;14.94;90.23
7157;BME280;3620;49.862;8.758;2023-02-23T11:00:29;99000.72;;;15.11;89.29
7157;BME280;3620;49.862;8.758;2023-02-23T11:02:59;99008.31;;;15.03;89.68
7157;BME280;3620;49.862;8.758;2023-02-23T11:05:34;99002.22;;;15.15;88.34
7157;BME280;3620;49.862;8.758;2023-02-23T11:08:26;99001.34;;;15.02;89.13
7157;BME280;3620;49.862;8.758;2023-02-23T11:11:16;98997.44;;;14.68;90.91
7157;BME280;3620;49.862;8.758;2023-02-23T11:13:46;99000.84;;;14.83;90.59
7157;BME280;3620;49.862;8.758;2023-02-23T11:16:18;99006.34;;;15.19;88.97
7157;BME280;3620;49.862;8.758;2023-02-23T11:18:50;99004.75;;;15.29;87.90
7157;BME280;3620;49.862;8.758;2023-02-23T11:21:23;98999.72;;;15.51;87.09
7157;BME280;3620;49.862;8.758;2023-02-23T11:23:52;99001.84;;;15.59;86.11
7157;BME280;3620;49.862;8.758;2023-02-23T11:26:28;98989.97;;;15.64;85.22
7157;BME280;3620;49.862;8.758;2023-02-23T11:28:58;98996.31;;;15.49;85.00
7157;BME280;3620;49.862;8.758;2023-02-23T11:31:29;98995.38;;;15.50;85.48
7157;BME280;3620;49.862;8.758;2023-02-23T11:34:00;98992.72;;;15.50;85.44
7157;BME280;3620;49.862;8.758;2023-02-23T11:36:29;98990.75;;;15.27;85.18
7157;BME280;3620;49.862;8.758;2023-02-23T11:39:02;98993.72;;;15.10;86.78
7157;BME280;3620;49.862;8.758;2023-02-23T11:41:29;98995.44;;;15.36;86.01
7157;BME280;3620;49.862;8.758;2023-02-23T11:43:58;98995.03;;;15.42;84.27
7157;BME280;3620;49.862;8.758;2023-02-23T11:46:29;98986.25;;;15.54;83.85
7157;BME280;3620;49.862;8.758;2023-02-23T11:48:58;98984.47;;;15.55;82.09
7157;BME280;3620;49.862;8.758;2023-02-23T11:51:27;98981.47;;;15.84;80.70
7157;BME280;3620;49.862;8.758;2023-02-23T11:53:55;98987.59;;;15.97;79.61
7157;BME280;3620;49.862;8.758;2023-02-23T11:56:23;98983.31;;;16.07;77.60
7157;BME280;3620;49.862;8.758;2023-02-23T11:58:52;98983.72;;;16.14;76.49
7157;BME280;3620;49.862;8.758;2023-02-23T12:01:22;98975.44;;;16.19;76.85
7157;BME280;3620;49.862;8.758;2023-02-23T12:03:52;98975.69;;;16.03;76.35
7157;BME280;3620;49.862;8.758;2023-02-23T12:06:28;98975.47;;;15.93;75.58
7157;BME280;3620;49.862;8.758;2023-02-23T12:08:59;98973.56;;;16.08;75.44
7157;BME280;3620;49.862;8.758;2023-02-23T12:11:32;98974.00;;;15.89;76.06
7157;BME280;3620;49.862;8.758;2023-02-23T12:14:06;98975.31;;;15.71;76.86
7157;BME280;3620;49.862;8.758;2023-02-23T12:16:38;98979.56;;;15.74;78.27
7157;BME280;3620;49.862;8.758;2023-02-23T12:19:15;98968.09;;;15.73;77.98
7157;BME280;3620;49.862;8.758;2023-02-23T12:21:49;98961.47;;;15.91;76.30
7157;BME280;3620;49.862;8.758;2023-02-23T12:24:22;98960.88;;;15.88;76.27
7157;BME280;3620;49.862;8.758;2023-02-23T12:26:55;98957.69;;;15.95;76.44
7157;BME280;3620;49.862;8.758;2023-02-23T12:29:29;98965.31;;;15.87;76.46
7157;BME280;3620;49.862;8.758;2023-02-23T12:31:59;98952.06;;;15.87;76.83
7157;BME280;3620;49.862;8.758;2023-02-23T12:34:34;98950.88;;;15.91;76.77
7157;BME280;3620;49.862;8.758;2023-02-23T12:37:18;98953.00;;;15.99;76.23
7157;BME280;3620;49.862;8.758;2023-02-23T12:39:55;98947.22;;;16.18;76.06
7157;BME280;3620;49.862;8.758;2023-02-23T12:42:26;98946.31;;;16.30;75.85
7157;BME280;3620;49.862;8.758;2023-02-23T12:45:00;98953.41;;;16.05;76.77
7157;BME280;3620;49.862;8.758;2023-02-23T12:47:31;98944.91;;;16.00;77.29
7157;BME280;3620;49.862;8.758;2023-02-23T12:50:03;98947.81;;;16.21;76.33
7157;BME280;3620;49.862;8.758;2023-02-23T12:52:37;98939.72;;;16.35;76.42
7157;BME280;3620;49.862;8.758;2023-02-23T12:55:08;98945.25;;;16.56;75.11
7157;BME280;3620;49.862;8.758;2023-02-23T12:57:41;98943.38;;;16.69;74.83
7157;BME280;3620;49.862;8.758;2023-02-23T13:00:27;98946.31;;;16.77;74.75
7157;BME280;3620;49.862;8.758;2023-02-23T13:03:27;98939.47;;;16.85;74.99
7157;BME280;3620;49.862;8.758;2023-02-23T13:06:03;98937.75;;;16.84;76.51
7157;BME280;3620;49.862;8.758;2023-02-23T13:08:40;98935.69;;;16.77;74.53
7157;BME280;3620;49.862;8.758;2023-02-23T13:11:19;98936.63;;;17.00;75.32
7157;BME280;3620;49.862;8.758;2023-02-23T13:13:52;98927.94;;;16.98;74.36
7157;BME280;3620;49.862;8.758;2023-02-23T13:16:25;98920.06;;;17.07;74.00
7157;BME280;3620;49.862;8.758;2023-02-23T13:19:04;98933.94;;;16.65;73.06
7157;BME280;3620;49.862;8.758;2023-02-23T13:21:36;98932.66;;;16.70;71.67
7157;BME280;3620;49.862;8.758;2023-02-23T13:24:06;98919.69;;;15.95;74.23
7157;BME280;3620;49.862;8.758;2023-02-23T13:26:39;98921.94;;;15.88;75.22
7157;BME280;3620;49.862;8.758;2023-02-23T13:29:14;98925.53;;;15.87;75.45
7157;BME280;3620;49.862;8.758;2023-02-23T13:31:45;98930.59;;;16.27;73.91
7157;BME280;3620;49.862;8.758;2023-02-23T13:34:17;98928.13;;;16.12;75.59
7157;BME280;3620;49.862;8.758;2023-02-23T13:36:48;98936.75;;;16.27;74.28
7157;BME280;3620;49.862;8.758;2023-02-23T13:42:29;98931.69;;;16.48;74.05
7157;BME280;3620;49.862;8.758;2023-02-23T13:45:11;98930.06;;;16.58;74.23
7157;BME280;3620;49.862;8.758;2023-02-23T13:47:46;98930.06;;;16.58;73.97
7157;BME280;3620;49.862;8.758;2023-02-23T13:50:18;98937.53;;;16.53;73.54
7157;BME280;3620;49.862;8.758;2023-02-23T13:52:51;98932.00;;;16.43;73.72
7157;BME280;3620;49.862;8.758;2023-02-23T13:55:43;98934.50;;;16.34;73.42